Time;durP1;ratioP1;P1;durP2;ratioP2;P2;SDS_P1;SDS_P2;PMS_P1;PMS_P2;Temp;Humidity;BMP_temperature;BMP_pressure;BME280_temperature;BME280_humidity;BME280_pressure;Samples;Min_cycle;Max_cycle;Signal;HPM_P1;HPM_P2
2022/08/11 00:01:24;;;;;;;2.10;1.50;;;26.00;71.90;;;;;;5102999;28;20210;-46
2022/08/11 00:03:56;;;;;;;4.35;1.90;;;26.00;72.10;;;;;;5092499;28;20201;-49
2022/08/11 00:06:33;;;;;;;2.42;1.77;;;26.00;72.20;;;;;;5106342;28;20291;-50
2022/08/11 00:09:03;;;;;;;3.85;2.05;;;26.00;72.10;;;;;;5111261;28;20252;-51
2022/08/11 00:11:40;;;;;;;1.92;1.70;;;26.00;72.00;;;;;;5110887;28;20296;-50
2022/08/11 00:14:18;;;;;;;5.05;1.90;;;25.90;72.00;;;;;;5127929;28;20233;-49
2022/08/11 00:16:58;;;;;;;2.20;1.70;;;25.90;72.10;;;;;;5126991;28;20296;-52
2022/08/11 00:19:31;;;;;;;1.92;1.52;;;25.90;71.90;;;;;;5107726;28;20557;-49
2022/08/11 00:22:24;;;;;;;4.32;1.98;;;25.80;71.90;;;;;;5124353;28;20205;-47
2022/08/11 00:24:55;;;;;;;2.90;1.63;;;25.80;72.10;;;;;;5126464;28;20204;-49
2022/08/11 00:27:38;;;;;;;2.08;1.88;;;25.80;72.20;;;;;;5127589;28;20627;-47
2022/08/11 00:30:15;;;;;;;3.25;1.80;;;25.70;72.20;;;;;;5126594;28;20679;-50
2022/08/11 00:32:53;;;;;;;2.13;1.70;;;25.70;72.20;;;;;;5127396;28;20217;-48
2022/08/11 00:35:26;;;;;;;2.17;1.98;;;25.70;72.20;;;;;;5114347;28;20309;-49
2022/08/11 00:38:15;;;;;;;2.53;1.75;;;25.70;72.20;;;;;;5101984;28;20288;-46
2022/08/11 00:41:12;;;;;;;2.72;1.85;;;25.60;72.30;;;;;;5120268;27;20234;-42
2022/08/11 00:43:56;;;;;;;3.20;2.05;;;25.60;72.30;;;;;;5114216;27;20227;-44
2022/08/11 00:46:37;;;;;;;4.25;2.53;;;25.50;72.30;;;;;;5132425;27;20255;-42
2022/08/11 00:49:22;;;;;;;2.92;2.20;;;25.50;72.50;;;;;;5107736;27;20257;-42
2022/08/11 00:51:59;;;;;;;4.25;2.08;;;25.40;72.50;;;;;;5123641;27;20218;-42
2022/08/11 00:54:37;;;;;;;8.38;2.15;;;25.30;72.60;;;;;;5126551;27;20202;-42
2022/08/11 00:57:52;;;;;;;2.00;1.80;;;25.30;72.70;;;;;;5130596;27;20687;-44
2022/08/11 01:00:42;;;;;;;2.20;2.00;;;25.30;72.90;;;;;;5129500;27;20197;-42
2022/08/11 01:03:26;;;;;;;2.67;1.92;;;25.20;73.10;;;;;;5125908;27;20198;-42
2022/08/11 01:06:25;;;;;;;3.97;2.47;;;25.10;72.70;;;;;;5091859;28;20667;-42
2022/08/11 01:09:34;;;;;;;2.13;1.77;;;25.10;72.60;;;;;;5117619;27;20695;-43
2022/08/11 01:12:14;;;;;;;2.72;2.10;;;25.00;72.60;;;;;;5111303;27;20226;-43
2022/08/11 01:15:02;;;;;;;4.35;2.30;;;25.00;72.70;;;;;;5083593;27;20273;-44
2022/08/11 01:17:54;;;;;;;4.82;2.22;;;25.00;73.00;;;;;;5119060;27;20260;-44
2022/08/11 01:20:39;;;;;;;2.30;1.92;;;25.00;72.70;;;;;;5109871;27;20664;-42
2022/08/11 01:23:35;;;;;;;2.72;1.98;;;25.00;73.00;;;;;;5096580;27;20221;-42
2022/08/11 01:26:27;;;;;;;2.80;2.20;;;24.90;72.80;;;;;;5116196;27;20259;-42
2022/08/11 01:29:19;;;;;;;2.45;2.22;;;24.80;73.30;;;;;;5120395;27;20215;-42
2022/08/11 01:31:55;;;;;;;2.63;2.13;;;24.70;73.40;;;;;;5128046;27;20678;-50
2022/08/11 01:34:26;;;;;;;3.72;2.20;;;24.70;73.20;;;;;;5106445;28;20201;-50
2022/08/11 01:37:02;;;;;;;3.67;2.08;;;24.60;73.10;;;;;;5090611;28;20220;-49
2022/08/11 01:39:54;;;;;;;2.30;2.10;;;24.60;72.90;;;;;;5116496;27;20224;-49
2022/08/11 01:46:08;;;;;;;3.05;1.90;;;24.60;73.20;;;;;;5111210;27;20217;-51
2022/08/11 01:48:40;;;;;;;4.30;2.10;;;24.60;72.90;;;;;;5119288;27;20214;-51
2022/08/11 01:51:14;;;;;;;2.72;2.38;;;24.50;73.00;;;;;;5107928;28;20684;-47
2022/08/11 01:53:58;;;;;;;2.40;2.20;;;24.50;72.90;;;;;;5112217;27;20270;-49
2022/08/11 01:56:50;;;;;;;2.75;2.00;;;24.50;73.30;;;;;;5130303;27;20202;-48
2022/08/11 01:59:17;;;;;;;1.90;1.75;;;24.50;73.50;;;;;;5116711;27;20234;-49
2022/08/11 02:01:57;;;;;;;2.97;2.33;;;24.50;73.30;;;;;;5108848;28;20653;-48
2022/08/11 02:04:35;;;;;;;2.88;2.00;;;24.40;73.50;;;;;;5117637;27;20301;-48
2022/08/11 02:07:35;;;;;;;3.08;2.17;;;24.40;73.90;;;;;;5090378;28;20245;-47
2022/08/11 02:13:50;;;;;;;2.10;1.90;;;24.20;74.40;;;;;;5078376;27;20916;-42
2022/08/11 02:16:47;;;;;;;2.55;2.08;;;24.10;74.20;;;;;;5091212;27;20194;-43
2022/08/11 02:26:03;;;;;;;3.67;2.35;;;23.90;73.80;;;;;;5108309;28;20626;-43
2022/08/11 02:28:58;;;;;;;3.92;2.15;;;23.90;74.10;;;;;;5024905;28;20248;-42
2022/08/11 02:35:27;;;;;;;2.75;2.15;;;23.80;74.10;;;;;;5112575;27;20214;-43
2022/08/11 02:38:20;;;;;;;3.13;2.30;;;23.70;73.90;;;;;;5108511;28;20875;-43
2022/08/11 02:40:58;;;;;;;2.33;2.13;;;23.70;73.70;;;;;;5089587;28;20218;-42
2022/08/11 02:43:35;;;;;;;2.58;2.35;;;23.70;74.00;;;;;;5090827;28;20222;-44
2022/08/11 02:46:27;;;;;;;3.35;2.30;;;23.70;73.90;;;;;;5125351;27;20271;-45
2022/08/11 02:52:16;;;;;;;5.13;2.70;;;23.70;74.00;;;;;;5108499;27;20259;-44
2022/08/11 02:55:01;;;;;;;3.08;2.30;;;23.70;74.50;;;;;;5096994;27;20293;-44
2022/08/11 02:57:36;;;;;;;5.07;2.40;;;23.60;74.40;;;;;;5128318;27;20248;-44
2022/08/11 03:00:10;;;;;;;3.42;2.38;;;23.60;74.40;;;;;;5116907;27;20296;-44
2022/08/11 03:02:49;;;;;;;7.53;2.67;;;23.50;74.20;;;;;;5107222;28;20278;-44
2022/08/11 03:05:30;;;;;;;4.57;2.28;;;23.50;74.40;;;;;;5108331;28;20676;-43
2022/08/11 03:08:22;;;;;;;2.70;2.47;;;23.50;74.70;;;;;;5114467;27;20703;-44
2022/08/11 03:17:46;;;;;;;3.83;2.28;;;23.30;74.80;;;;;;5035073;28;20192;-44
2022/08/11 03:20:41;;;;;;;2.80;1.92;;;23.30;74.80;;;;;;5038425;28;20308;-44
2022/08/11 03:23:32;;;;;;;2.85;2.08;;;23.20;74.60;;;;;;5120571;27;20197;-42
2022/08/11 03:26:23;;;;;;;2.95;2.45;;;23.20;74.90;;;;;;5110526;27;20308;-43
2022/08/11 03:29:18;;;;;;;2.75;2.30;;;23.20;74.90;;;;;;5089033;28;20312;-43
2022/08/11 03:31:54;;;;;;;2.40;2.20;;;23.20;75.30;;;;;;5107697;28;20194;-44
2022/08/11 03:34:25;;;;;;;5.55;2.50;;;23.10;74.60;;;;;;5112093;27;20250;-43
2022/08/11 03:41:41;;;;;;;6.00;3.13;;;23.10;75.30;;;;;;5118402;27;20281;-44
2022/08/11 03:43:11;;;;;;;4.95;2.63;;;23.00;75.50;;;;;;5110377;27;20411;-43
2022/08/11 03:45:56;;;;;;;5.07;2.83;;;23.00;75.30;;;;;;5120089;27;20240;-50
2022/08/11 03:48:46;;;;;;;2.90;2.58;;;22.90;75.40;;;;;;5117803;27;20205;-48
2022/08/11 03:51:52;;;;;;;3.47;2.90;;;22.90;75.80;;;;;;5103672;27;20328;-50
2022/08/11 03:54:55;;;;;;;3.85;2.78;;;22.80;75.50;;;;;;5125579;28;20196;-50
2022/08/11 03:57:45;;;;;;;4.60;2.42;;;22.80;76.20;;;;;;5088737;28;20237;-51
2022/08/11 04:00:32;;;;;;;3.60;2.90;;;22.70;76.20;;;;;;5107330;28;20297;-49
2022/08/11 04:03:30;;;;;;;3.30;2.65;;;22.70;76.10;;;;;;5089848;28;20206;-50
2022/08/11 04:06:47;;;;;;;4.40;3.00;;;22.60;76.30;;;;;;5106603;28;20263;-50
2022/08/11 04:09:36;;;;;;;4.53;2.75;;;22.60;76.40;;;;;;5118168;28;20575;-50
2022/08/11 04:12:22;;;;;;;3.90;2.78;;;22.50;75.20;;;;;;5107254;28;20293;-49
2022/08/11 04:18:30;;;;;;;2.67;2.47;;;22.40;75.80;;;;;;5110647;27;20220;-51
2022/08/11 04:21:04;;;;;;;6.10;3.08;;;22.40;75.90;;;;;;5110750;28;20280;-50
2022/08/11 04:23:38;;;;;;;4.13;2.90;;;22.40;75.80;;;;;;5109919;28;20198;-50
2022/08/11 04:26:49;;;;;;;4.88;2.70;;;22.30;75.70;;;;;;5125881;27;20210;-52
2022/08/11 04:29:37;;;;;;;2.83;2.55;;;22.30;76.10;;;;;;5103286;27;20398;-51
2022/08/11 04:32:53;;;;;;;3.88;2.42;;;22.30;76.60;;;;;;5113150;27;20229;-50
2022/08/11 04:35:43;;;;;;;3.88;2.88;;;22.20;76.20;;;;;;5113360;27;20293;-51
2022/08/11 04:38:32;;;;;;;4.55;2.65;;;22.20;76.10;;;;;;5124181;27;20320;-50
2022/08/11 04:41:29;;;;;;;4.32;2.67;;;22.10;75.90;;;;;;5125938;27;20530;-52
2022/08/11 04:44:28;;;;;;;4.13;2.90;;;22.20;76.40;;;;;;5091749;28;20190;-51
2022/08/11 04:47:07;;;;;;;4.45;3.17;;;22.20;76.40;;;;;;5110412;27;20218;-52
2022/08/11 05:02:01;;;;;;;4.60;2.67;;;22.10;76.70;;;;;;5122534;27;20757;-50
2022/08/11 05:05:32;;;;;;;5.20;3.05;;;22.00;76.30;;;;;;5127287;27;20217;-54
2022/08/11 05:08:05;;;;;;;3.50;2.67;;;22.10;76.90;;;;;;5103388;27;20318;-50
2022/08/11 05:11:01;;;;;;;4.95;3.35;;;22.10;76.80;;;;;;5113071;27;20234;-49
2022/08/11 05:34:52;;;;;;;5.40;3.38;;;22.00;77.50;;;;;;5126110;27;20318;-51
2022/08/11 05:37:28;;;;;;;8.85;3.40;;;22.00;77.40;;;;;;5129705;27;20890;-52
2022/08/11 05:57:56;;;;;;;4.63;3.20;;;22.20;77.80;;;;;;5102720;28;20264;-44
2022/08/11 06:00:24;;;;;;;6.05;3.45;;;22.20;78.20;;;;;;5099079;27;20214;-43
2022/08/11 06:02:59;;;;;;;6.57;4.10;;;22.30;78.10;;;;;;5110678;27;20731;-43
2022/08/11 06:05:34;;;;;;;5.80;3.42;;;22.30;78.10;;;;;;5092570;28;20224;-44
2022/08/11 06:08:11;;;;;;;7.82;3.90;;;22.30;78.10;;;;;;5110014;27;22585;-44
2022/08/11 06:10:40;;;;;;;4.32;3.45;;;22.40;78.10;;;;;;5106892;27;20300;-44
2022/08/11 06:13:13;;;;;;;10.07;3.92;;;22.40;78.20;;;;;;5108085;27;20242;-44
2022/08/11 06:15:50;;;;;;;4.30;3.33;;;22.40;79.10;;;;;;5110687;27;20261;-43
2022/08/11 06:18:18;;;;;;;5.15;3.90;;;22.50;78.50;;;;;;5105798;27;20225;-43
2022/08/11 06:20:54;;;;;;;8.73;4.45;;;22.50;78.40;;;;;;5115177;27;20258;-44
2022/08/11 06:23:29;;;;;;;5.00;3.60;;;22.50;79.10;;;;;;5115516;27;20223;-44
2022/08/11 06:25:59;;;;;;;8.43;4.63;;;22.60;78.80;;;;;;5127709;27;20227;-44
2022/08/11 06:28:35;;;;;;;6.65;4.07;;;22.60;78.90;;;;;;5112115;27;20233;-44
2022/08/11 06:31:18;;;;;;;12.00;5.03;;;22.70;78.90;;;;;;5109251;27;20576;-45
2022/08/11 06:33:54;;;;;;;7.57;4.63;;;22.70;79.10;;;;;;5127802;27;20229;-44
2022/08/11 06:36:24;;;;;;;6.95;3.92;;;22.70;78.90;;;;;;5108698;27;20217;-44
2022/08/11 06:39:21;;;;;;;8.85;5.05;;;22.80;78.80;;;;;;5099861;28;20606;-44
2022/08/11 06:41:59;;;;;;;11.45;4.90;;;22.90;79.40;;;;;;5113187;27;20206;-44
2022/08/11 06:44:57;;;;;;;7.90;4.60;;;22.90;79.20;;;;;;5116103;27;20500;-49
2022/08/11 06:47:27;;;;;;;12.98;4.82;;;22.90;79.50;;;;;;5122535;27;20288;-50
2022/08/11 06:52:47;;;;;;;12.13;4.22;;;23.00;79.10;;;;;;5121334;27;20250;-50
2022/08/11 07:01:34;;;;;;;8.15;4.03;;;23.20;79.70;;;;;;5107782;28;20649;-50
2022/08/11 07:04:09;;;;;;;7.25;4.18;;;23.20;79.60;;;;;;5108879;27;20894;-49
2022/08/11 07:16:21;;;;;;;5.13;3.40;;;23.50;79.70;;;;;;5119503;27;20317;-42
2022/08/11 07:30:38;;;;;;;4.63;3.08;;;23.80;80.10;;;;;;5108466;27;20748;-42
2022/08/11 07:33:10;;;;;;;7.38;3.22;;;23.90;80.20;;;;;;5094928;28;20243;-42
2022/08/11 07:35:59;;;;;;;4.25;3.20;;;23.90;80.20;;;;;;5095704;27;20193;-42
2022/08/11 07:38:44;;;;;;;4.47;3.13;;;24.00;80.00;;;;;;5122866;27;20198;-42
2022/08/11 07:41:15;;;;;;;3.72;2.75;;;24.00;80.20;;;;;;5120607;27;20205;-42
2022/08/11 07:43:47;;;;;;;5.30;2.88;;;24.10;80.20;;;;;;5117070;27;20240;-42
2022/08/11 07:54:42;;;;;;;5.00;3.00;;;24.30;80.40;;;;;;5116411;27;20305;-42
2022/08/11 08:20:48;;;;;;;3.35;2.50;;;24.90;80.20;;;;;;5112087;27;20472;-42
2022/08/11 08:23:31;;;;;;;3.72;2.72;;;24.90;80.00;;;;;;5107347;28;20324;-42
2022/08/11 08:26:57;;;;;;;5.70;3.00;;;25.00;79.90;;;;;;5103975;28;20197;-42
2022/08/11 08:30:46;;;;;;;4.00;2.60;;;25.00;79.80;;;;;;5122727;28;20281;-42
2022/08/11 08:31:43;;;;;;;5.47;2.30;;;25.10;79.80;;;;;;5108041;27;20772;-42
2022/08/11 08:34:12;;;;;;;4.50;2.97;;;25.20;80.00;;;;;;5107586;28;20254;-42
2022/08/11 08:36:43;;;;;;;6.43;3.42;;;25.30;79.60;;;;;;5136227;27;20201;-42
2022/08/11 08:39:12;;;;;;;9.20;3.05;;;25.30;79.70;;;;;;5140376;27;20262;-42
2022/08/11 08:41:43;;;;;;;7.60;3.05;;;25.40;79.80;;;;;;5121315;28;20695;-42
2022/08/11 08:44:13;;;;;;;6.28;2.90;;;25.50;79.70;;;;;;5125439;28;20698;-42
2022/08/11 08:47:04;;;;;;;5.05;2.65;;;25.50;80.00;;;;;;5126639;28;20209;-42
2022/08/11 08:49:38;;;;;;;6.25;2.72;;;25.60;80.20;;;;;;5088269;27;20203;-42
2022/08/11 08:52:11;;;;;;;4.03;3.08;;;25.70;80.30;;;;;;5122290;28;20201;-42
2022/08/11 08:55:03;;;;;;;5.93;2.60;;;25.80;80.30;;;;;;5104593;28;20213;-42
2022/08/11 08:57:33;;;;;;;3.20;2.55;;;25.90;80.00;;;;;;5119412;28;20356;-42
2022/08/11 09:00:06;;;;;;;3.55;2.65;;;25.90;80.10;;;;;;5122843;27;20743;-51
2022/08/11 09:02:36;;;;;;;6.63;3.10;;;26.00;80.30;;;;;;5127572;27;20584;-47
2022/08/11 09:05:06;;;;;;;5.85;3.13;;;26.00;80.50;;;;;;5107419;27;20206;-47
2022/08/11 09:07:36;;;;;;;7.05;2.92;;;26.10;80.70;;;;;;5093856;27;20293;-51
2022/08/11 09:10:11;;;;;;;8.23;3.08;;;26.20;80.90;;;;;;5093082;27;20760;-49
2022/08/11 09:12:40;;;;;;;6.15;2.90;;;26.40;80.90;;;;;;5107283;27;20372;-47
2022/08/11 09:15:10;;;;;;;6.93;3.40;;;26.40;80.80;;;;;;5110873;27;20201;-47
2022/08/11 09:17:50;;;;;;;5.97;2.95;;;26.50;80.60;;;;;;5126061;27;20281;-52
2022/08/11 09:20:23;;;;;;;6.70;3.13;;;26.60;80.00;;;;;;5119988;27;20331;-51
2022/08/11 09:29:00;;;;;;;4.68;2.65;;;26.70;80.10;;;;;;5124856;27;20859;-52
2022/08/11 09:31:34;;;;;;;4.57;2.78;;;26.80;79.60;;;;;;5122818;27;20230;-50
2022/08/11 09:34:10;;;;;;;4.13;2.88;;;26.80;78.70;;;;;;5115858;27;20204;-50
2022/08/11 09:42:15;;;;;;;5.32;2.67;;;27.00;78.30;;;;;;5131127;27;20205;-51
2022/08/11 09:44:51;;;;;;;3.85;3.25;;;27.00;78.50;;;;;;5122210;27;20595;-50
2022/08/11 09:47:29;;;;;;;5.45;3.13;;;27.10;78.40;;;;;;5126672;27;20205;-50
2022/08/11 09:49:59;;;;;;;5.72;3.15;;;27.10;77.60;;;;;;5111263;27;20627;-51
2022/08/11 09:52:47;;;;;;;3.33;2.65;;;27.20;78.50;;;;;;5129574;27;20675;-51
2022/08/11 09:55:35;;;;;;;4.25;2.78;;;27.30;76.80;;;;;;5100402;27;21838;-51
2022/08/11 09:58:15;;;;;;;5.15;2.47;;;27.30;77.10;;;;;;5140602;27;20232;-51
2022/08/11 10:01:04;;;;;;;2.53;2.30;;;27.40;78.40;;;;;;5122740;27;20249;-50
2022/08/11 10:03:36;;;;;;;4.93;2.40;;;27.50;78.80;;;;;;5132827;27;21045;-50
2022/08/11 10:09:05;;;;;;;7.78;3.03;;;27.60;78.10;;;;;;5126166;27;20205;-49
2022/08/11 10:11:37;;;;;;;6.10;3.03;;;27.70;78.20;;;;;;5125922;27;20222;-49
2022/08/11 10:17:09;;;;;;;3.53;2.85;;;27.80;78.00;;;;;;5108642;27;20201;-51
2022/08/11 10:19:40;;;;;;;7.05;2.70;;;27.80;77.10;;;;;;5114501;27;20761;-51
2022/08/11 10:27:56;;;;;;;7.18;2.85;;;28.00;76.40;;;;;;5134482;27;20806;-53
2022/08/11 10:36:32;;;;;;;5.50;2.55;;;28.20;76.50;;;;;;5094353;27;20619;-54
2022/08/11 10:39:04;;;;;;;3.65;2.63;;;28.30;75.10;;;;;;5110243;27;20236;-48
2022/08/11 10:44:38;;;;;;;3.95;2.33;;;28.40;77.10;;;;;;5120399;27;20707;-41
2022/08/11 11:01:08;;;;;;;6.45;2.83;;;28.70;76.50;;;;;;5107393;27;20851;-52
2022/08/11 11:03:39;;;;;;;4.10;2.90;;;28.80;76.60;;;;;;5112666;27;20736;-50
2022/08/11 11:06:47;;;;;;;10.98;2.85;;;28.80;77.00;;;;;;5120637;27;20212;-42
2022/08/11 11:09:20;;;;;;;6.75;2.70;;;28.90;75.80;;;;;;5125959;27;20197;-41
2022/08/11 11:20:22;;;;;;;4.20;2.60;;;29.00;75.70;;;;;;5113942;27;20194;-41
2022/08/11 11:23:12;;;;;;;3.75;2.67;;;29.00;74.10;;;;;;5114016;27;20641;-41
2022/08/11 11:26:09;;;;;;;2.55;2.20;;;29.20;74.80;;;;;;5123312;27;20561;-40
2022/08/11 11:28:49;;;;;;;3.90;2.30;;;29.20;75.80;;;;;;5099782;27;20205;-40
2022/08/11 11:31:50;;;;;;;2.55;2.35;;;29.30;75.90;;;;;;5119554;27;20249;-40
2022/08/11 11:34:57;;;;;;;3.65;2.47;;;29.30;73.90;;;;;;5116509;27;20324;-41
2022/08/11 11:37:25;;;;;;;3.38;2.40;;;29.40;75.00;;;;;;5114746;27;20225;-41
2022/08/11 11:39:54;;;;;;;3.20;2.15;;;29.50;75.00;;;;;;5114486;27;20206;-40
2022/08/11 11:42:24;;;;;;;2.47;2.28;;;29.60;75.70;;;;;;5116851;27;20808;-41
2022/08/11 11:44:54;;;;;;;5.30;2.13;;;29.60;76.00;;;;;;5122770;27;20201;-41
2022/08/11 11:47:25;;;;;;;2.80;2.10;;;29.70;76.10;;;;;;5113274;28;20316;-41
2022/08/11 11:49:54;;;;;;;3.15;2.35;;;29.70;76.20;;;;;;5108112;28;20239;-41
2022/08/11 11:52:22;;;;;;;6.55;3.03;;;29.80;76.30;;;;;;5110981;27;20588;-41
2022/08/11 11:54:55;;;;;;;6.97;2.40;;;29.80;74.40;;;;;;5109350;27;20221;-41
2022/08/11 12:03:16;;;;;;;3.92;2.40;;;30.00;73.30;;;;;;5116826;28;20197;-41
2022/08/11 12:05:44;;;;;;;3.15;2.40;;;30.00;72.60;;;;;;5106806;28;20205;-41
2022/08/11 12:08:15;;;;;;;3.58;2.20;;;30.00;73.00;;;;;;5120291;28;20193;-40
2022/08/11 12:13:39;;;;;;;10.27;2.33;;;30.10;72.90;;;;;;5109500;27;20263;-40
2022/08/11 12:13:45;;;;;;;3.45;1.92;;;30.10;73.20;;;;;;5108463;28;20299;-41
2022/08/11 12:16:20;;;;;;;3.78;2.10;;;30.20;73.20;;;;;;5089693;28;20232;-41
2022/08/11 12:19:06;;;;;;;2.33;2.03;;;30.20;73.50;;;;;;5118366;27;20281;-40
2022/08/11 12:21:36;;;;;;;4.22;2.08;;;30.30;72.10;;;;;;5109997;28;20267;-40
2022/08/11 12:29:48;;;;;;;3.45;2.10;;;30.50;73.10;;;;;;5120949;28;20308;-41
2022/08/11 12:32:25;;;;;;;2.97;2.00;;;30.50;72.60;;;;;;5106154;27;20308;-42
2022/08/11 12:34:55;;;;;;;4.07;2.20;;;30.60;73.00;;;;;;5116700;27;20410;-42
2022/08/11 12:37:28;;;;;;;2.88;2.58;;;30.60;72.70;;;;;;5114378;27;20226;-42
2022/08/11 12:46:20;;;;;;;3.00;1.95;;;30.70;72.70;;;;;;5118427;27;20214;-42
2022/08/11 12:51:57;;;;;;;5.50;2.70;;;30.80;69.60;;;;;;5118463;27;20320;-41
2022/08/11 12:54:56;;;;;;;2.92;2.65;;;30.80;70.30;;;;;;5120821;27;20197;-41
2022/08/11 13:06:07;;;;;;;3.35;2.35;;;31.00;71.60;;;;;;5120688;27;20218;-42
2022/08/11 13:08:37;;;;;;;5.80;2.38;;;31.10;70.70;;;;;;5126087;27;20205;-42
2022/08/11 13:14:11;;;;;;;3.95;2.40;;;31.20;70.30;;;;;;5118868;27;20209;-42
2022/08/11 13:19:33;;;;;;;2.63;2.42;;;31.30;72.10;;;;;;5113348;27;20708;-55
2022/08/11 13:22:04;;;;;;;3.20;2.58;;;31.30;71.20;;;;;;5109177;27;20233;-51
2022/08/11 13:24:33;;;;;;;4.57;1.90;;;31.40;71.90;;;;;;5114248;27;20259;-51
2022/08/11 13:27:03;;;;;;;4.22;2.40;;;31.50;72.30;;;;;;5109985;27;20216;-41
2022/08/11 13:29:34;;;;;;;5.20;2.53;;;31.50;72.60;;;;;;5111563;27;20588;-42
2022/08/11 13:32:02;;;;;;;4.22;2.30;;;31.60;71.40;;;;;;5108973;28;20294;-42
2022/08/11 13:34:30;;;;;;;3.47;2.17;;;31.60;70.50;;;;;;5123194;27;20194;-41
2022/08/11 13:37:01;;;;;;;5.15;2.67;;;31.60;71.60;;;;;;5112027;27;20288;-42
2022/08/11 13:39:30;;;;;;;6.72;2.33;;;31.60;70.10;;;;;;5121366;27;20246;-41
2022/08/11 13:42:02;;;;;;;4.47;2.30;;;31.70;71.40;;;;;;5091013;28;20244;-41
2022/08/11 13:44:32;;;;;;;3.50;2.30;;;31.70;71.60;;;;;;5124554;27;20205;-42
2022/08/11 13:47:02;;;;;;;3.35;2.35;;;31.80;70.20;;;;;;5122985;27;20201;-42
2022/08/11 13:49:32;;;;;;;4.10;2.13;;;31.80;69.90;;;;;;5099597;27;20600;-42
2022/08/11 13:52:03;;;;;;;3.67;2.20;;;31.80;71.30;;;;;;5107095;27;20224;-42
2022/08/11 13:54:37;;;;;;;4.95;2.33;;;31.90;71.80;;;;;;5116585;27;20269;-42
2022/08/11 13:57:06;;;;;;;4.38;2.95;;;31.90;71.30;;;;;;5097094;27;20206;-41
2022/08/11 13:59:37;;;;;;;3.72;2.30;;;32.00;70.60;;;;;;5104524;27;20301;-41
2022/08/11 14:02:27;;;;;;;2.60;2.00;;;32.00;71.10;;;;;;5128050;27;20630;-41
2022/08/11 14:05:28;;;;;;;5.32;2.58;;;32.10;72.00;;;;;;5122184;27;20250;-41
2022/08/11 14:08:00;;;;;;;7.18;2.78;;;32.10;72.10;;;;;;5114303;27;20210;-42
2022/08/11 14:10:31;;;;;;;4.18;2.60;;;32.20;68.70;;;;;;5114407;27;20581;-42
2022/08/11 14:16:28;;;;;;;4.38;2.25;;;32.20;71.20;;;;;;5119981;27;20225;-42
2022/08/11 14:19:04;;;;;;;3.20;2.10;;;32.20;71.10;;;;;;5122848;27;20274;-42
2022/08/11 14:24:23;;;;;;;6.72;3.17;;;32.40;70.60;;;;;;5115432;27;20293;-42
2022/08/11 14:26:54;;;;;;;2.88;2.42;;;32.40;70.60;;;;;;5113748;27;20293;-41
2022/08/11 14:29:26;;;;;;;3.45;2.60;;;32.40;70.80;;;;;;5115268;27;20209;-42
2022/08/11 14:32:01;;;;;;;5.55;2.60;;;32.40;70.40;;;;;;5102055;27;20240;-41
2022/08/11 14:34:33;;;;;;;6.28;2.30;;;32.40;69.30;;;;;;5112526;27;20228;-42
2022/08/11 14:37:09;;;;;;;6.45;2.30;;;32.40;69.60;;;;;;5107221;27;20767;-42
2022/08/11 14:39:57;;;;;;;5.43;3.72;;;32.40;70.60;;;;;;5111618;27;20190;-42
2022/08/11 14:48:22;;;;;;;3.88;2.75;;;32.60;70.10;;;;;;5116928;27;20376;-42
2022/08/11 14:50:50;;;;;;;3.15;2.63;;;32.70;68.10;;;;;;5119851;27;20207;-42
2022/08/11 14:53:23;;;;;;;4.55;2.63;;;32.70;70.20;;;;;;5118292;27;20313;-42
2022/08/11 14:58:42;;;;;;;5.75;2.60;;;32.70;69.60;;;;;;5119628;27;20329;-42
2022/08/11 15:03:58;;;;;;;3.55;2.45;;;32.70;67.60;;;;;;5096651;27;20981;-42
2022/08/11 15:06:46;;;;;;;4.18;2.30;;;32.70;66.40;;;;;;5111625;27;20213;-41
2022/08/11 15:09:17;;;;;;;2.53;2.25;;;32.80;65.40;;;;;;5117881;27;20533;-42
2022/08/11 15:17:40;;;;;;;2.92;2.20;;;32.90;66.60;;;;;;5097552;27;20202;-50
2022/08/11 15:25:54;;;;;;;3.28;2.45;;;32.90;66.30;;;;;;5123307;27;20679;-52
2022/08/11 15:37:25;;;;;;;3.67;2.10;;;33.00;65.90;;;;;;5110653;27;21690;-52
2022/08/11 15:46:15;;;;;;;3.35;2.22;;;33.10;64.50;;;;;;5120020;27;20732;-51
2022/08/11 15:48:47;;;;;;;3.58;2.20;;;33.10;65.60;;;;;;5127435;27;20287;-50
2022/08/11 15:51:28;;;;;;;5.20;2.53;;;33.10;65.30;;;;;;5112364;27;20206;-47
2022/08/11 15:54:00;;;;;;;2.40;2.10;;;33.20;64.00;;;;;;5112681;27;20209;-48
2022/08/11 15:56:41;;;;;;;4.13;2.20;;;33.20;64.70;;;;;;5122013;27;20686;-49
2022/08/11 16:05:07;;;;;;;6.15;2.60;;;33.30;65.20;;;;;;5125598;28;20308;-49
2022/08/11 16:07:36;;;;;;;5.22;2.20;;;33.40;63.90;;;;;;5119218;28;20216;-50
2022/08/11 16:10:18;;;;;;;3.88;2.17;;;33.40;63.70;;;;;;5117541;27;20265;-50
2022/08/11 16:18:39;;;;;;;2.30;2.10;;;33.50;62.00;;;;;;5108956;27;20214;-49
2022/08/11 16:21:32;;;;;;;4.43;2.13;;;33.50;61.80;;;;;;5123365;27;20201;-50
2022/08/11 16:24:07;;;;;;;2.22;2.03;;;33.50;63.80;;;;;;5097876;27;20324;-50
2022/08/11 16:26:41;;;;;;;4.70;2.13;;;33.60;62.70;;;;;;5114838;27;20206;-49
2022/08/11 16:29:31;;;;;;;3.95;2.17;;;33.50;63.90;;;;;;5098257;27;20199;-50
2022/08/11 16:32:17;;;;;;;5.80;2.10;;;33.60;62.90;;;;;;5100257;28;20230;-50
2022/08/11 16:40:50;;;;;;;2.50;2.10;;;33.70;64.30;;;;;;5130738;27;20554;-41
2022/08/11 16:48:58;;;;;;;2.95;2.50;;;33.70;64.40;;;;;;5115229;27;20225;-41
2022/08/11 16:51:26;;;;;;;4.40;2.10;;;33.80;63.40;;;;;;5128102;27;20205;-41
2022/08/11 16:53:53;;;;;;;2.45;2.25;;;33.90;64.60;;;;;;5110100;27;20198;-40
2022/08/11 16:56:49;;;;;;;5.53;2.40;;;33.90;64.80;;;;;;5121922;27;20300;-41
2022/08/11 16:59:26;;;;;;;4.40;2.10;;;34.00;63.90;;;;;;5096596;28;20252;-41
2022/08/11 17:02:08;;;;;;;4.07;2.22;;;34.00;62.30;;;;;;5125821;27;20695;-41
2022/08/11 17:13:46;;;;;;;3.63;2.08;;;34.10;63.40;;;;;;5099753;27;20646;-40
2022/08/11 17:16:19;;;;;;;4.78;2.40;;;34.20;61.40;;;;;;5121201;27;20225;-41
2022/08/11 17:19:07;;;;;;;3.85;2.17;;;34.20;62.00;;;;;;5115122;27;20204;-42
2022/08/11 17:24:42;;;;;;;3.70;2.38;;;34.20;60.90;;;;;;5113842;27;20289;-42
2022/08/11 17:27:15;;;;;;;2.45;2.20;;;34.20;62.10;;;;;;5114854;27;20214;-42
2022/08/11 17:29:56;;;;;;;2.95;2.28;;;34.20;63.10;;;;;;5108820;27;20215;-42
2022/08/11 17:35:31;;;;;;;7.38;2.05;;;34.30;64.20;;;;;;5111478;27;20198;-42
2022/08/11 17:38:19;;;;;;;2.78;2.35;;;34.40;63.50;;;;;;5092880;28;20237;-42
2022/08/11 17:49:25;;;;;;;3.75;2.42;;;34.50;63.20;;;;;;5123374;27;20255;-42
2022/08/11 18:00:15;;;;;;;3.30;2.22;;;34.50;63.90;;;;;;5108107;27;20648;-52
2022/08/11 18:05:33;;;;;;;3.45;2.95;;;34.50;62.70;;;;;;5095203;27;20217;-53
